Time;durP1;ratioP1;P1;durP2;ratioP2;P2;SDS_P1;SDS_P2;PMS_P1;PMS_P2;Temp;Humidity;BMP_temperature;BMP_pressure;BME280_temperature;BME280_humidity;BME280_pressure;Samples;Min_cycle;Max_cycle;Signal;HPM_P1;HPM_P2
2022/05/01 00:00:27;;;;;;;15.90;6.75;;;;;;;-144.47;56.94;53334.78;5052643;28;20029;-68
2022/05/01 00:02:52;;;;;;;15.18;7.07;;;;;;;-144.47;56.89;53338.75;5051650;28;20051;-66
2022/05/01 00:05:18;;;;;;;14.23;6.30;;;;;;;-144.47;56.84;53328.81;5049961;28;20029;-67
2022/05/01 00:07:43;;;;;;;13.25;6.72;;;;;;;-144.47;56.88;53344.72;5050115;28;20029;-67
2022/05/01 00:10:09;;;;;;;14.93;7.18;;;;;;;-144.47;56.92;53277.19;5050939;28;20013;-68
2022/05/01 00:12:35;;;;;;;14.07;6.60;;;;;;;-144.47;57.01;53295.06;5050513;28;20029;-67
2022/05/01 00:15:01;;;;;;;22.05;6.35;;;;;;;-144.47;57.19;53376.50;5051577;28;20078;-66
2022/05/01 00:17:26;;;;;;;10.90;6.13;;;;;;;-144.47;57.19;53281.16;5051757;28;20037;-67
2022/05/01 00:19:52;;;;;;;15.30;6.97;;;;;;;-144.47;57.39;53328.81;5033181;28;20041;-66
2022/05/01 00:22:17;;;;;;;14.63;6.70;;;;;;;-144.47;57.40;53314.91;5050708;28;20028;-67
2022/05/01 00:24:43;;;;;;;14.40;6.68;;;;;;;-144.47;57.70;53336.78;5051905;28;20028;-68
2022/05/01 00:27:08;;;;;;;13.63;6.63;;;;;;;-144.47;57.86;53350.69;5051631;28;20025;-67
2022/05/01 00:29:34;;;;;;;18.58;6.65;;;;;;;-144.47;57.68;53344.72;5051247;28;20513;-66
2022/05/01 00:32:00;;;;;;;13.32;6.32;;;;;;;-144.47;57.93;53348.69;5048056;28;20521;-65
2022/05/01 00:37:09;;;;;;;16.80;7.40;;;;;;;-144.47;57.88;53348.69;5044593;28;20082;-67
2022/05/01 00:39:34;;;;;;;18.73;6.50;;;;;;;-144.47;58.13;53338.75;5051655;28;20021;-66
2022/05/01 00:42:00;;;;;;;19.10;7.18;;;;;;;-144.47;58.47;53326.84;5026981;28;20037;-67
2022/05/01 00:44:25;;;;;;;13.68;6.35;;;;;;;-144.47;58.49;53334.78;5050820;28;20040;-67
2022/05/01 00:46:52;;;;;;;11.38;6.03;;;;;;;-144.47;58.81;53330.81;5050680;28;20037;-67
2022/05/01 00:49:20;;;;;;;15.40;6.35;;;;;;;-144.47;58.89;53344.72;5048866;28;20025;-68
2022/05/01 00:52:09;;;;;;;15.30;6.53;;;;;;;-144.47;59.03;53330.81;5051097;28;20056;-67
2022/05/01 00:54:41;;;;;;;14.95;6.50;;;;;;;-144.47;59.29;53340.75;5037251;28;20033;-66
2022/05/01 00:57:07;;;;;;;19.83;6.93;;;;;;;-144.47;59.18;53348.69;5047441;28;20029;-66
2022/05/01 00:59:35;;;;;;;12.25;6.30;;;;;;;-144.47;59.16;53326.84;5048665;28;20044;-66
2022/05/01 01:02:01;;;;;;;22.35;7.95;;;;;;;-144.47;59.67;53340.75;5049135;28;20029;-67
2022/05/01 01:04:26;;;;;;;13.65;6.68;;;;;;;-144.47;59.66;53326.84;5051016;28;20048;-67
2022/05/01 01:06:51;;;;;;;13.27;6.20;;;;;;;-144.47;59.67;53312.94;5050562;28;20040;-69
2022/05/01 01:09:18;;;;;;;17.02;6.75;;;;;;;-144.47;59.72;53372.53;5028242;28;20026;-66
2022/05/01 01:11:43;;;;;;;16.27;6.55;;;;;;;-144.47;59.91;53356.63;5047982;28;20090;-69
2022/05/01 01:14:10;;;;;;;14.85;6.63;;;;;;;-144.47;59.93;53320.88;5048175;28;20116;-67
2022/05/01 01:16:37;;;;;;;15.95;6.57;;;;;;;-144.47;59.89;53336.78;5050398;28;20029;-67
2022/05/01 01:19:04;;;;;;;18.13;7.20;;;;;;;-144.47;60.13;53314.91;5047961;28;20024;-68
2022/05/01 01:21:29;;;;;;;11.48;5.88;;;;;;;-144.47;60.04;53350.69;5049775;28;20035;-67
2022/05/01 01:23:57;;;;;;;13.65;6.47;;;;;;;-144.47;60.19;53368.56;5050542;28;20040;-69
2022/05/01 01:26:23;;;;;;;13.70;6.45;;;;;;;-144.47;60.14;53301.03;5049680;28;20029;-68
2022/05/01 01:28:48;;;;;;;13.50;5.93;;;;;;;-144.47;60.18;53348.69;5048915;28;20406;-66
2022/05/01 01:34:03;;;;;;;14.48;6.00;;;;;;;-144.47;60.39;53320.88;5050559;28;20513;-69
2022/05/01 01:36:32;;;;;;;20.67;6.78;;;;;;;-144.47;60.60;53350.69;5049668;28;20120;-67
2022/05/01 01:38:58;;;;;;;10.10;5.18;;;;;;;-144.47;60.39;53358.63;5050170;28;20036;-69
2022/05/01 01:41:28;;;;;;;13.80;6.10;;;;;;;-144.47;60.74;53394.38;5045276;28;20033;-67
2022/05/01 01:43:54;;;;;;;12.48;6.65;;;;;;;-144.47;60.69;53364.59;5046464;28;20075;-68
2022/05/01 01:46:19;;;;;;;10.98;6.03;;;;;;;-144.47;60.94;53340.75;5049073;28;20501;-69
2022/05/01 01:48:46;;;;;;;19.80;5.85;;;;;;;-144.47;60.84;53334.78;5026043;28;20040;-69
2022/05/01 01:51:12;;;;;;;12.00;5.85;;;;;;;-144.47;60.90;53366.56;5049221;28;20079;-67
2022/05/01 01:53:37;;;;;;;18.75;6.00;;;;;;;-144.47;60.80;53366.56;5049876;28;20052;-65
2022/05/01 01:56:04;;;;;;;12.35;5.15;;;;;;;-144.47;60.96;53344.72;5048230;28;20037;-68
2022/05/01 01:58:30;;;;;;;12.15;5.10;;;;;;;-144.47;61.02;53346.72;5050061;28;20032;-67
2022/05/01 02:00:56;;;;;;;13.32;4.88;;;;;;;-144.47;60.87;53364.59;5049555;28;20432;-67
2022/05/01 02:03:22;;;;;;;11.43;5.55;;;;;;;-144.47;60.88;53364.59;5049532;28;20029;-66
2022/05/01 02:05:48;;;;;;;10.10;5.43;;;;;;;-144.47;61.09;53338.75;5049097;28;20033;-67
2022/05/01 02:08:15;;;;;;;11.73;5.07;;;;;;;-144.47;61.02;53358.63;5049401;28;20037;-68
2022/05/01 02:10:40;;;;;;;11.88;5.30;;;;;;;-144.47;60.99;53368.56;5048024;28;20079;-64
2022/05/01 02:13:06;;;;;;;11.18;5.00;;;;;;;-144.47;60.69;53314.91;5049791;28;20049;-68
2022/05/01 02:15:35;;;;;;;13.18;5.32;;;;;;;-144.47;60.80;53374.50;5047528;28;20096;-67
2022/05/01 02:18:01;;;;;;;13.38;4.97;;;;;;;-144.47;60.39;53398.34;5045691;28;20495;-65
2022/05/01 02:20:28;;;;;;;12.90;4.68;;;;;;;-144.47;60.72;53326.84;5048224;28;20068;-68
2022/05/01 02:22:54;;;;;;;14.00;4.78;;;;;;;-144.47;60.33;53362.59;5023509;28;20031;-68
2022/05/01 02:25:21;;;;;;;12.68;5.38;;;;;;;-144.47;60.27;53346.72;5049234;28;20054;-69
2022/05/01 02:27:47;;;;;;;10.25;4.35;;;;;;;-144.47;60.32;53378.50;5047126;28;20078;-68
2022/05/01 02:30:13;;;;;;;9.75;4.72;;;;;;;-144.47;60.05;53340.75;5047931;28;20055;-70
2022/05/01 02:32:39;;;;;;;10.27;4.53;;;;;;;-144.47;60.17;53324.84;5048728;28;20056;-69
2022/05/01 02:35:06;;;;;;;9.98;4.25;;;;;;;-144.47;60.22;53336.78;5029573;28;20029;-68
2022/05/01 02:37:31;;;;;;;12.10;4.40;;;;;;;-144.47;60.14;53352.66;5048943;28;20462;-68
2022/05/01 02:39:57;;;;;;;12.75;5.18;;;;;;;-144.47;60.18;53334.78;5046392;28;20053;-67
2022/05/01 02:42:22;;;;;;;8.38;4.40;;;;;;;-144.47;60.22;53318.91;5045312;28;20043;-68
2022/05/01 02:44:48;;;;;;;14.70;5.40;;;;;;;-144.47;60.25;53364.59;5048698;28;20037;-67
2022/05/01 02:47:13;;;;;;;11.70;4.60;;;;;;;-144.47;60.14;53340.75;5048614;28;20057;-68
2022/05/01 02:49:40;;;;;;;14.25;4.53;;;;;;;-144.47;59.80;53334.78;5048710;28;20033;-68
2022/05/01 02:52:07;;;;;;;13.93;4.63;;;;;;;-144.47;59.98;53340.75;5049152;28;20013;-68
2022/05/01 02:54:32;;;;;;;13.77;4.10;;;;;;;-144.47;59.97;53404.31;5045611;28;20493;-66
2022/05/01 02:56:57;;;;;;;12.15;4.45;;;;;;;-144.47;59.79;53378.50;5026407;28;20060;-69
2022/05/01 02:59:23;;;;;;;9.80;4.50;;;;;;;-144.47;60.08;53328.81;5048442;28;20033;-67
2022/05/01 03:01:48;;;;;;;9.70;4.22;;;;;;;-144.47;60.04;53364.59;5045572;28;20454;-68
2022/05/01 03:04:14;;;;;;;10.10;3.97;;;;;;;-144.47;59.89;53320.88;5047698;28;20031;-66
2022/05/01 03:06:39;;;;;;;9.82;4.50;;;;;;;-144.47;60.15;53342.72;5045306;28;20029;-66
2022/05/01 03:09:04;;;;;;;11.50;4.13;;;;;;;-144.47;60.00;53360.63;5028896;28;20040;-68
2022/05/01 03:11:32;;;;;;;13.77;4.28;;;;;;;-144.47;60.23;53378.50;5044352;28;20056;-67
2022/05/01 03:13:57;;;;;;;9.65;4.22;;;;;;;-144.47;59.87;53330.81;5029010;28;20020;-68
2022/05/01 03:16:23;;;;;;;8.60;3.85;;;;;;;-144.47;60.22;53356.63;5048289;28;20383;-68
2022/05/01 03:24:19;;;;;;;12.85;4.45;;;;;;;-144.47;60.23;53370.53;5043341;28;20190;-68
2022/05/01 03:26:47;;;;;;;7.70;4.32;;;;;;;-144.47;60.12;53344.72;5044840;28;20047;-68
2022/05/01 03:29:13;;;;;;;9.02;4.72;;;;;;;-144.47;60.21;53356.63;5048052;28;20025;-68
2022/05/01 03:31:38;;;;;;;8.98;3.70;;;;;;;-144.47;60.35;53368.56;5040483;28;20485;-67
2022/05/01 03:34:04;;;;;;;14.30;3.67;;;;;;;-144.47;60.11;53360.63;5050839;28;20107;-68
2022/05/01 03:36:30;;;;;;;10.85;4.55;;;;;;;-144.47;60.14;53372.53;5044673;28;20144;-69
2022/05/01 03:38:55;;;;;;;16.45;4.60;;;;;;;-144.47;60.07;53338.75;5051388;28;20079;-69
2022/05/01 03:41:20;;;;;;;8.57;3.85;;;;;;;-144.47;59.96;53342.72;5031262;28;20033;-67
2022/05/01 03:43:46;;;;;;;10.27;3.95;;;;;;;-144.47;59.80;53295.06;5031708;28;20060;-69
2022/05/01 03:46:11;;;;;;;10.95;4.60;;;;;;;-144.47;59.96;53342.72;5049566;28;20112;-67
2022/05/01 03:48:36;;;;;;;11.80;4.28;;;;;;;-144.47;59.74;53356.63;5052524;28;20027;-67
2022/05/01 03:51:02;;;;;;;11.65;4.20;;;;;;;-144.47;59.71;53352.66;5051260;28;20033;-68
2022/05/01 03:53:29;;;;;;;15.13;4.43;;;;;;;-144.47;59.32;53370.53;5052418;28;20187;-67
2022/05/01 03:55:55;;;;;;;14.75;4.68;;;;;;;-144.47;59.20;53312.94;5050770;28;20044;-67
2022/05/01 03:58:21;;;;;;;8.30;3.63;;;;;;;-144.47;59.10;53348.69;5052410;28;20032;-66
2022/05/01 04:00:48;;;;;;;18.33;4.72;;;;;;;-144.47;59.08;53364.59;5049896;28;20031;-68
2022/05/01 04:03:19;;;;;;;11.15;4.18;;;;;;;-144.47;58.88;53360.63;5051832;28;20037;-64
2022/05/01 04:05:45;;;;;;;8.10;3.70;;;;;;;-144.47;58.71;53322.88;5028741;28;20033;-66
2022/05/01 04:08:11;;;;;;;10.65;4.10;;;;;;;-144.47;58.71;53352.66;5051979;28;20037;-67
2022/05/01 04:10:38;;;;;;;8.27;3.65;;;;;;;-144.47;58.59;53324.84;5047936;28;20537;-65
2022/05/01 04:13:03;;;;;;;10.88;3.85;;;;;;;-144.47;58.73;53372.53;5051626;28;20032;-68
2022/05/01 04:15:29;;;;;;;9.27;3.95;;;;;;;-144.47;58.28;53380.47;5031038;28;20037;-69
2022/05/01 04:17:54;;;;;;;11.88;3.45;;;;;;;-144.47;58.28;53386.44;5051872;28;20028;-65
2022/05/01 04:20:19;;;;;;;11.27;4.15;;;;;;;-144.47;58.13;53356.63;5047045;28;20041;-68
2022/05/01 04:22:47;;;;;;;11.55;4.30;;;;;;;-144.47;57.71;53354.66;5051014;28;20037;-67
2022/05/01 04:25:30;;;;;;;9.48;3.88;;;;;;;-144.47;57.83;53364.59;5051452;28;20036;-68
2022/05/01 04:28:03;;;;;;;10.07;4.15;;;;;;;-144.47;57.61;53338.75;5048174;28;20017;-65
2022/05/01 04:30:32;;;;;;;12.50;3.90;;;;;;;-144.47;57.52;53330.81;5050249;28;20029;-66
2022/05/01 04:32:59;;;;;;;11.90;4.97;;;;;;;-144.47;57.56;53308.97;5050804;28;20406;-66
2022/05/01 04:35:28;;;;;;;8.50;3.83;;;;;;;-144.47;57.46;53342.72;5049498;28;20410;-68
2022/05/01 04:37:56;;;;;;;9.05;4.13;;;;;;;-144.47;57.35;53328.81;5050918;28;20036;-66
2022/05/01 04:40:21;;;;;;;10.93;4.00;;;;;;;-144.47;56.95;53287.13;5047757;28;20080;-67
2022/05/01 04:42:46;;;;;;;10.88;4.20;;;;;;;-144.47;57.14;53330.81;5046983;28;20092;-67
2022/05/01 04:45:12;;;;;;;10.00;4.05;;;;;;;-144.47;57.41;53346.72;5050056;28;20029;-67
2022/05/01 04:47:38;;;;;;;16.67;4.03;;;;;;;-144.47;57.02;53356.63;5048521;28;20048;-67
2022/05/01 04:50:04;;;;;;;8.65;3.88;;;;;;;-144.47;57.23;53326.84;5050530;28;20590;-65
2022/05/01 04:52:30;;;;;;;9.65;4.13;;;;;;;-144.47;56.94;53350.69;5047546;28;20578;-66
2022/05/01 04:54:55;;;;;;;12.93;4.63;;;;;;;-144.47;56.83;53340.75;5045586;28;20108;-67
2022/05/01 04:57:21;;;;;;;13.50;4.35;;;;;;;-144.47;56.69;53338.75;5049523;28;20060;-67
2022/05/01 04:59:48;;;;;;;10.75;4.05;;;;;;;-144.47;56.62;53324.84;5050724;28;20032;-68
2022/05/01 05:02:14;;;;;;;8.80;3.88;;;;;;;-144.47;56.29;53316.91;5046805;28;20071;-67
2022/05/01 05:04:40;;;;;;;10.32;4.07;;;;;;;-144.47;56.06;53336.78;5050803;28;20407;-66
2022/05/01 05:07:06;;;;;;;15.80;3.60;;;;;;;-144.47;56.36;53324.84;5042278;28;20029;-65
2022/05/01 05:12:15;;;;;;;12.30;4.55;;;;;;;-144.47;55.71;53320.88;5044743;28;20052;-66
2022/05/01 05:14:40;;;;;;;11.88;4.50;;;;;;;-144.47;55.32;53340.75;5050674;28;20414;-65
2022/05/01 05:17:06;;;;;;;11.10;4.15;;;;;;;-144.47;55.20;53314.91;5045901;28;20083;-67
2022/05/01 05:19:34;;;;;;;7.65;3.83;;;;;;;-144.47;55.05;53301.03;5045566;28;20131;-64
2022/05/01 05:21:59;;;;;;;8.52;3.95;;;;;;;-144.47;54.97;53314.91;5041994;28;20040;-67
2022/05/01 05:24:25;;;;;;;13.35;4.40;;;;;;;-144.47;54.76;53352.66;5043837;28;20518;-66
2022/05/01 05:26:50;;;;;;;11.02;4.20;;;;;;;-144.47;54.85;53308.97;5041428;28;20106;-66
2022/05/01 05:29:15;;;;;;;19.88;4.45;;;;;;;-144.47;54.38;53340.75;5039987;28;20034;-65
2022/05/01 05:31:40;;;;;;;10.00;4.22;;;;;;;-144.47;54.25;53348.69;5042443;28;20490;-64
2022/05/01 05:34:06;;;;;;;9.88;4.47;;;;;;;-144.47;54.59;53324.84;5043880;28;20029;-68
2022/05/01 05:36:31;;;;;;;14.45;5.03;;;;;;;-144.47;54.00;53336.78;5026937;28;20517;-67
2022/05/01 05:38:56;;;;;;;7.32;3.95;;;;;;;-144.47;53.98;53287.13;5044339;28;20040;-67
2022/05/01 05:41:22;;;;;;;10.80;4.65;;;;;;;-144.47;54.15;53285.13;5029732;28;20068;-66
2022/05/01 05:43:47;;;;;;;14.00;4.40;;;;;;;-144.47;53.98;53297.03;5047080;28;20043;-67
2022/05/01 05:46:12;;;;;;;14.77;4.63;;;;;;;-144.47;53.86;53310.94;5048605;28;20033;-68
2022/05/01 05:48:38;;;;;;;9.77;4.72;;;;;;;-144.47;54.05;53334.78;5047687;28;20087;-69
2022/05/01 05:53:30;;;;;;;11.38;4.32;;;;;;;-144.47;53.47;53301.03;5062317;28;20040;-67
2022/05/01 05:55:55;;;;;;;10.32;4.97;;;;;;;-144.47;53.98;53332.81;5064065;28;20036;-71
2022/05/01 05:58:21;;;;;;;12.38;4.60;;;;;;;-144.47;53.38;53277.19;5062876;28;20020;-72
2022/05/01 06:00:46;;;;;;;11.73;4.75;;;;;;;-144.47;52.88;53291.09;5063905;28;20024;-71
2022/05/01 06:03:11;;;;;;;12.52;4.78;;;;;;;-144.47;52.69;53297.03;5065372;28;20532;-68
2022/05/01 06:05:37;;;;;;;12.63;4.75;;;;;;;-144.47;52.77;53305.00;5063988;28;20116;-69
2022/05/01 06:08:02;;;;;;;14.00;4.88;;;;;;;-144.47;52.58;53340.75;5051937;28;20042;-66
2022/05/01 06:10:28;;;;;;;9.45;4.88;;;;;;;-144.47;52.37;53316.91;5066836;28;20036;-67
2022/05/01 06:12:53;;;;;;;14.77;4.68;;;;;;;-144.47;51.95;53299.03;5063445;28;20017;-70
2022/05/01 06:15:18;;;;;;;9.50;4.53;;;;;;;-144.47;51.60;53301.03;5068050;28;20089;-67
2022/05/01 06:17:44;;;;;;;11.77;4.95;;;;;;;-144.47;51.25;53289.09;5050407;28;20031;-69
2022/05/01 06:20:09;;;;;;;7.65;4.38;;;;;;;-144.47;50.92;53334.78;5067683;28;20033;-67
2022/05/01 06:22:35;;;;;;;10.15;5.07;;;;;;;-144.47;51.02;53285.13;5048199;28;20035;-68
2022/05/01 06:25:00;;;;;;;11.50;4.65;;;;;;;-144.47;51.05;53360.63;5068422;28;20019;-66
2022/05/01 06:27:25;;;;;;;9.23;4.85;;;;;;;-144.47;50.76;53283.13;5067730;28;20036;-69
2022/05/01 06:29:51;;;;;;;9.23;4.05;;;;;;;-144.47;50.97;53316.91;5068371;28;20062;-69
2022/05/01 06:32:17;;;;;;;10.85;4.45;;;;;;;-144.47;50.57;53285.13;5064943;28;20059;-70
2022/05/01 06:34:43;;;;;;;8.82;4.45;;;;;;;-144.47;50.23;53273.22;5048436;28;20045;-68
2022/05/01 06:37:08;;;;;;;10.75;5.30;;;;;;;-144.47;50.53;53275.19;5067805;28;20054;-67
2022/05/01 06:39:34;;;;;;;12.00;4.40;;;;;;;-144.47;50.12;53303.00;5068140;28;20524;-70
2022/05/01 06:41:59;;;;;;;12.35;4.72;;;;;;;-144.47;49.98;53281.16;5067571;28;20563;-69
2022/05/01 06:44:24;;;;;;;12.75;5.35;;;;;;;-144.47;49.87;53267.25;5064471;28;20102;-71
2022/05/01 06:46:50;;;;;;;11.10;4.72;;;;;;;-144.47;49.17;53324.84;5065376;28;20079;-67
2022/05/01 06:49:15;;;;;;;12.80;4.85;;;;;;;-144.47;49.77;53303.00;5062545;28;20056;-71
2022/05/01 06:51:40;;;;;;;15.25;4.72;;;;;;;-144.47;49.66;53261.28;5060310;28;20199;-68
2022/05/01 06:54:10;;;;;;;11.10;5.00;;;;;;;-144.47;49.75;53283.13;5058561;28;20033;-70
2022/05/01 06:56:35;;;;;;;12.52;4.93;;;;;;;-144.47;49.33;53318.91;5069011;28;20521;-71
2022/05/01 06:59:01;;;;;;;15.18;5.30;;;;;;;-144.47;49.38;53285.13;5067613;28;20193;-71
2022/05/01 07:01:27;;;;;;;12.55;5.20;;;;;;;-144.47;49.66;53299.03;5048666;28;20086;-68
2022/05/01 07:03:52;;;;;;;11.05;4.60;;;;;;;-144.47;48.96;53247.38;5067570;28;20048;-72
2022/05/01 07:06:17;;;;;;;15.15;4.95;;;;;;;-144.47;48.97;53289.09;5067418;28;20065;-67
2022/05/01 07:08:43;;;;;;;9.30;4.55;;;;;;;-144.47;48.33;53277.19;5066693;28;20473;-70
2022/05/01 07:11:09;;;;;;;13.60;5.05;;;;;;;-144.47;47.92;53273.22;5067174;28;20032;-70
2022/05/01 07:13:35;;;;;;;11.90;4.55;;;;;;;-144.47;48.34;53263.28;5066259;28;20769;-72
2022/05/01 07:16:01;;;;;;;11.25;4.78;;;;;;;-144.47;48.54;53239.44;5064156;28;20044;-73
2022/05/01 07:18:26;;;;;;;9.32;4.75;;;;;;;-144.47;48.28;53277.19;5067399;28;20033;-71
2022/05/01 07:20:52;;;;;;;10.80;5.72;;;;;;;-144.47;47.25;53291.09;5048472;28;20082;-72
2022/05/01 07:23:21;;;;;;;12.57;5.35;;;;;;;-144.47;47.57;53303.00;5057369;28;20093;-71
2022/05/01 07:25:47;;;;;;;15.80;5.10;;;;;;;-144.47;47.92;53273.22;5057338;28;20033;-70
2022/05/01 07:28:12;;;;;;;12.95;5.20;;;;;;;-144.47;48.05;53245.41;5063072;28;20020;-73
2022/05/01 07:30:38;;;;;;;10.93;5.22;;;;;;;-144.47;48.50;53275.19;5055439;28;20029;-69
2022/05/01 07:33:03;;;;;;;11.52;5.57;;;;;;;-144.47;47.99;53265.25;5057544;28;20169;-69
2022/05/01 07:35:28;;;;;;;14.75;5.75;;;;;;;-144.47;48.34;53273.22;5035772;28;20132;-70
2022/05/01 07:37:54;;;;;;;10.23;4.35;;;;;;;-144.47;48.50;53289.09;5067336;28;20493;-74
2022/05/01 07:40:24;;;;;;;13.25;5.38;;;;;;;-144.47;48.51;53233.47;5064804;28;20085;-69
2022/05/01 07:42:49;;;;;;;13.00;5.47;;;;;;;-144.47;48.11;53289.09;5037684;28;20031;-69
2022/05/01 07:45:14;;;;;;;12.45;5.07;;;;;;;-144.47;47.60;53291.09;5057377;28;20409;-70
2022/05/01 07:47:40;;;;;;;10.88;4.78;;;;;;;-144.47;47.14;53279.16;5060676;28;20058;-70
2022/05/01 07:50:06;;;;;;;15.05;5.10;;;;;;;-144.47;46.78;53289.09;5063221;28;20045;-68
2022/05/01 07:52:32;;;;;;;12.15;5.55;;;;;;;-144.47;47.00;53257.31;5047005;28;20046;-74
2022/05/01 07:54:58;;;;;;;9.32;5.15;;;;;;;-144.47;47.40;53289.09;5066552;28;20012;-71
2022/05/01 07:57:26;;;;;;;12.77;5.25;;;;;;;-144.47;47.64;53289.09;5064801;28;20358;-70
2022/05/01 07:59:52;;;;;;;21.70;6.03;;;;;;;-144.47;47.01;53289.09;5065309;28;20355;-71
2022/05/01 08:02:17;;;;;;;10.55;4.97;;;;;;;-144.47;46.52;53287.13;5062615;28;20502;-71
2022/05/01 08:04:43;;;;;;;13.05;5.20;;;;;;;-144.47;46.15;53267.25;5043656;28;20043;-72
2022/05/01 08:07:10;;;;;;;9.48;5.28;;;;;;;-144.47;45.63;53277.19;5064501;28;20036;-67
2022/05/01 08:09:36;;;;;;;18.85;7.00;;;;;;;-144.47;45.05;53259.31;5066830;28;20020;-72
2022/05/01 08:12:02;;;;;;;11.15;5.07;;;;;;;-144.47;45.13;53291.09;5047723;28;20044;-70
2022/05/01 08:14:27;;;;;;;14.55;4.65;;;;;;;-144.47;44.93;53213.63;5064969;28;20627;-68
2022/05/01 08:16:53;;;;;;;8.80;5.35;;;;;;;-144.47;45.43;53279.16;5048988;28;20103;-69
2022/05/01 08:22:04;;;;;;;20.13;5.78;;;;;;;-144.47;45.47;53229.50;5070404;28;20043;-72
2022/05/01 08:24:30;;;;;;;15.63;6.20;;;;;;;-144.47;45.92;53259.31;5051222;28;20033;-71
2022/05/01 08:26:56;;;;;;;13.88;5.57;;;;;;;-144.47;45.73;53287.13;5070322;28;20162;-72
2022/05/01 08:29:21;;;;;;;17.48;5.80;;;;;;;-144.47;44.73;53275.19;5069765;28;20382;-72
2022/05/01 08:31:46;;;;;;;9.95;5.30;;;;;;;-144.47;44.81;53247.38;5040589;28;20041;-72
2022/05/01 08:34:12;;;;;;;13.88;6.30;;;;;;;-144.47;44.22;53273.22;5051151;28;20627;-70
2022/05/01 08:36:38;;;;;;;12.57;5.78;;;;;;;-144.47;44.16;53275.19;5070129;28;20021;-72
2022/05/01 08:39:04;;;;;;;12.13;5.88;;;;;;;-144.47;44.23;53225.53;5069120;28;20028;-72
2022/05/01 08:41:31;;;;;;;16.20;6.40;;;;;;;-144.47;45.06;53241.44;5069716;28;20484;-72
2022/05/01 08:43:58;;;;;;;12.25;5.53;;;;;;;-144.47;44.82;53215.59;5062478;28;20390;-72
2022/05/01 08:46:41;;;;;;;16.15;5.90;;;;;;;-144.47;45.04;53273.22;5068429;28;20036;-73
2022/05/01 08:49:08;;;;;;;16.00;6.32;;;;;;;-144.47;44.24;53239.44;5050253;28;20032;-73
2022/05/01 08:51:40;;;;;;;15.48;6.22;;;;;;;-144.47;44.31;53277.19;5069839;28;20068;-71
2022/05/01 08:54:08;;;;;;;15.32;5.78;;;;;;;-144.47;44.76;53259.31;5065409;28;20037;-72
2022/05/01 08:56:35;;;;;;;10.90;5.90;;;;;;;-144.47;44.65;53305.00;5069365;28;20116;-71
2022/05/01 08:59:04;;;;;;;19.10;5.90;;;;;;;-144.47;44.99;53251.34;5068652;28;20034;-71
2022/05/01 09:01:30;;;;;;;;;;;;;;;-144.47;44.36;53243.41;5069778;28;20051;-73
2022/05/01 09:03:56;;;;;;;21.25;7.03;;;;;;;-144.47;43.84;53247.38;5069513;28;19916;-72
2022/05/01 09:06:21;;;;;;;11.20;6.00;;;;;;;-144.47;43.72;53199.72;5051282;28;20590;-71
2022/05/01 09:08:48;;;;;;;15.02;6.13;;;;;;;-144.47;43.61;53241.44;5051012;28;20032;-73
2022/05/01 09:13:58;;;;;;;16.27;7.60;;;;;;;-144.47;43.65;53263.28;5069373;28;20096;-71
2022/05/01 09:16:25;;;;;;;15.27;6.97;;;;;;;-144.47;43.74;53239.44;5069296;28;20128;-73
2022/05/01 09:18:50;;;;;;;14.85;6.82;;;;;;;-144.47;43.48;53251.34;5069792;28;20537;-74
2022/05/01 09:21:16;;;;;;;14.35;6.22;;;;;;;-144.47;43.93;53217.59;5060135;28;20040;-71
2022/05/01 09:23:44;;;;;;;16.20;7.15;;;;;;;-144.47;43.79;53233.47;5069075;28;20041;-72
2022/05/01 09:26:11;;;;;;;15.57;6.60;;;;;;;-144.47;44.11;53237.44;5065172;28;20039;-74
2022/05/01 09:28:46;;;;;;;15.25;6.95;;;;;;;-144.47;43.10;53217.59;5066122;28;20174;-71
2022/05/01 09:31:12;;;;;;;12.50;6.55;;;;;;;-144.47;43.73;53277.19;5067465;28;20025;-74
2022/05/01 09:33:37;;;;;;;17.05;7.03;;;;;;;-144.47;43.49;53229.50;5068859;28;20046;-72
2022/05/01 09:36:02;;;;;;;13.43;6.97;;;;;;;-144.47;42.79;53217.59;5049880;28;20426;-72
2022/05/01 09:38:28;;;;;;;16.33;7.93;;;;;;;-144.47;42.07;53257.31;5069222;28;20409;-72
2022/05/01 09:40:58;;;;;;;16.98;7.10;;;;;;;-144.47;42.30;53253.34;5067744;28;20055;-70
2022/05/01 09:43:38;;;;;;;29.33;7.35;;;;;;;-144.47;42.03;53253.34;5068166;28;20070;-74
2022/05/01 09:46:15;;;;;;;14.77;7.07;;;;;;;-144.47;41.98;53269.22;5065883;28;20099;-73
2022/05/01 09:48:42;;;;;;;21.75;7.65;;;;;;;-144.47;42.53;53265.25;5068843;28;20063;-72
2022/05/01 09:51:16;;;;;;;13.00;6.57;;;;;;;-144.47;42.35;53265.25;5049794;28;20025;-73
2022/05/01 09:53:44;;;;;;;12.32;6.65;;;;;;;-144.47;42.45;53269.22;5068499;28;20032;-70
2022/05/01 09:56:10;;;;;;;16.13;7.45;;;;;;;-144.47;42.11;53219.56;5068215;28;20136;-73
2022/05/01 09:58:40;;;;;;;13.27;6.95;;;;;;;-144.47;41.75;53257.31;5048768;28;20135;-73
2022/05/01 10:01:12;;;;;;;20.92;7.57;;;;;;;-144.47;41.52;53229.50;5061480;28;20401;-72
2022/05/01 10:03:48;;;;;;;14.35;6.93;;;;;;;-144.47;41.53;53231.50;5067717;28;20122;-74
2022/05/01 10:06:15;;;;;;;16.55;6.35;;;;;;;-144.47;41.73;53243.41;5068168;28;20025;-71
2022/05/01 10:08:45;;;;;;;11.27;6.50;;;;;;;-144.47;41.45;53209.66;5065786;28;20041;-72
2022/05/01 10:11:16;;;;;;;18.70;7.25;;;;;;;-144.47;41.30;53181.84;5067802;28;20123;-71
2022/05/01 10:13:43;;;;;;;20.30;7.60;;;;;;;-144.47;40.61;53221.56;5049063;28;20443;-73
2022/05/01 10:16:11;;;;;;;16.77;7.32;;;;;;;-144.47;40.65;53207.66;5067826;28;20036;-71
2022/05/01 10:18:38;;;;;;;12.97;7.03;;;;;;;-144.47;40.53;53249.38;5067666;28;20035;-72
2022/05/01 10:21:04;;;;;;;11.98;6.43;;;;;;;-144.47;39.78;53211.63;5054153;28;20040;-73
2022/05/01 10:23:30;;;;;;;17.73;7.25;;;;;;;-144.47;39.97;53201.69;5068708;28;20109;-72
2022/05/01 10:26:09;;;;;;;12.10;6.70;;;;;;;-144.47;39.91;53197.72;5067734;28;20040;-69
2022/05/01 10:28:53;;;;;;;;;;;;;;;-144.47;40.12;53225.53;5068355;28;20032;-73
2022/05/01 10:34:23;;;;;;;23.13;6.82;;;;;;;-144.47;39.31;53249.38;5063899;28;20170;-71
2022/05/01 10:37:08;;;;;;;12.55;6.60;;;;;;;-144.47;39.28;53217.59;5067048;28;20078;-71
2022/05/01 10:39:38;;;;;;;16.20;7.57;;;;;;;-144.47;39.01;53233.47;5055273;28;20486;-70
2022/05/01 10:42:04;;;;;;;17.10;7.85;;;;;;;-144.47;38.57;53197.72;5057332;28;20033;-69
2022/05/01 10:44:33;;;;;;;14.85;6.85;;;;;;;-144.47;37.81;53229.50;5064858;28;20032;-73
2022/05/01 10:47:17;;;;;;;18.10;9.13;;;;;;;-144.47;37.39;53191.78;5058725;28;20036;-70
2022/05/01 10:49:44;;;;;;;14.90;6.30;;;;;;;-144.47;37.47;53229.50;5066592;28;20032;-71
2022/05/01 10:52:21;;;;;;;11.50;6.40;;;;;;;-144.47;37.68;53211.63;5060132;28;20107;-71
2022/05/01 10:55:00;;;;;;;14.77;6.93;;;;;;;-144.47;37.93;53187.78;5065068;28;20024;-72
2022/05/01 10:57:25;;;;;;;21.65;6.90;;;;;;;-144.47;37.28;53203.69;5065256;28;20024;-71
2022/05/01 11:00:05;;;;;;;20.33;7.22;;;;;;;-144.47;37.30;53193.75;5067188;28;20033;-72
2022/05/01 11:02:30;;;;;;;13.13;6.95;;;;;;;-144.47;37.21;53219.56;5066841;28;20166;-73
2022/05/01 11:04:57;;;;;;;14.50;7.47;;;;;;;-144.47;36.50;53205.66;5066290;28;20484;-70
2022/05/01 11:07:25;;;;;;;23.05;7.57;;;;;;;-144.47;36.42;53173.88;5062435;28;20054;-71
2022/05/01 11:09:51;;;;;;;14.18;7.10;;;;;;;-144.47;36.00;53193.75;5062563;28;20027;-71
2022/05/01 11:12:22;;;;;;;19.15;7.70;;;;;;;-144.47;36.04;53197.72;5065613;28;20032;-71
2022/05/01 11:15:00;;;;;;;16.73;7.75;;;;;;;-144.47;36.63;53229.50;5045052;28;20051;-71
2022/05/01 11:17:39;;;;;;;15.07;7.20;;;;;;;-144.47;36.68;53201.69;5063684;28;20198;-71
2022/05/01 11:20:05;;;;;;;16.95;7.90;;;;;;;-144.47;36.41;53213.63;5057124;28;20059;-72
2022/05/01 11:22:31;;;;;;;14.00;8.00;;;;;;;-144.47;36.20;53189.78;5061404;28;20036;-71
2022/05/01 11:24:57;;;;;;;19.20;8.18;;;;;;;-144.47;36.53;53175.88;5063376;28;20174;-72
2022/05/01 11:27:23;;;;;;;15.35;7.45;;;;;;;-144.47;36.28;53217.59;5061764;28;20862;-69
2022/05/01 11:30:06;;;;;;;21.77;8.18;;;;;;;-144.47;36.04;53207.66;5046149;28;20020;-71
2022/05/01 11:32:46;;;;;;;18.55;7.88;;;;;;;-144.47;36.04;53231.50;5059942;28;20128;-70
2022/05/01 11:35:11;;;;;;;13.18;6.88;;;;;;;-144.47;36.02;53209.66;5065354;28;20041;-71